sensor_id;sensor_type;location;lat;lon;timestamp;P1;durP1;ratioP1;P2;durP2;ratioP2
27428;SDS011;14881;48.092;11.574;2022-08-19T00:01:50;10.35;;;9.18;;
27428;SDS011;14881;48.092;11.574;2022-08-19T00:04:20;10.93;;;9.25;;
27428;SDS011;14881;48.092;11.574;2022-08-19T00:06:50;10.48;;;8.45;;
27428;SDS011;14881;48.092;11.574;2022-08-19T00:09:19;9.98;;;8.65;;
27428;SDS011;14881;48.092;11.574;2022-08-19T00:11:50;10.32;;;9.30;;
27428;SDS011;14881;48.092;11.574;2022-08-19T00:14:19;9.93;;;8.00;;
27428;SDS011;14881;48.092;11.574;2022-08-19T00:16:48;9.98;;;8.70;;
27428;SDS011;14881;48.092;11.574;2022-08-19T00:19:17;11.52;;;9.32;;
27428;SDS011;14881;48.092;11.574;2022-08-19T00:21:45;9.95;;;8.95;;
27428;SDS011;14881;48.092;11.574;2022-08-19T00:24:13;11.10;;;9.85;;
27428;SDS011;14881;48.092;11.574;2022-08-19T00:26:43;11.35;;;10.20;;
27428;SDS011;14881;48.092;11.574;2022-08-19T00:29:13;10.60;;;9.00;;
27428;SDS011;14881;48.092;11.574;2022-08-19T00:31:42;11.90;;;9.52;;
27428;SDS011;14881;48.092;11.574;2022-08-19T00:34:11;10.38;;;9.18;;
27428;SDS011;14881;48.092;11.574;2022-08-19T00:36:39;10.45;;;9.35;;
27428;SDS011;14881;48.092;11.574;2022-08-19T00:39:08;11.13;;;9.98;;
27428;SDS011;14881;48.092;11.574;2022-08-19T00:41:36;10.95;;;9.30;;
27428;SDS011;14881;48.092;11.574;2022-08-19T00:44:06;16.70;;;10.98;;
27428;SDS011;14881;48.092;11.574;2022-08-19T00:46:36;11.23;;;10.15;;
27428;SDS011;14881;48.092;11.574;2022-08-19T00:49:06;12.48;;;10.52;;
27428;SDS011;14881;48.092;11.574;2022-08-19T00:51:41;12.40;;;10.25;;
27428;SDS011;14881;48.092;11.574;2022-08-19T00:54:12;17.05;;;12.45;;
27428;SDS011;14881;48.092;11.574;2022-08-19T00:56:40;17.27;;;12.88;;
27428;SDS011;14881;48.092;11.574;2022-08-19T00:59:10;16.10;;;12.25;;
27428;SDS011;14881;48.092;11.574;2022-08-19T01:01:38;14.55;;;11.00;;
27428;SDS011;14881;48.092;11.574;2022-08-19T01:04:08;14.82;;;11.40;;
27428;SDS011;14881;48.092;11.574;2022-08-19T01:06:36;14.07;;;12.52;;
27428;SDS011;14881;48.092;11.574;2022-08-19T01:09:05;17.98;;;12.40;;
27428;SDS011;14881;48.092;11.574;2022-08-19T01:11:34;13.80;;;12.30;;
27428;SDS011;14881;48.092;11.574;2022-08-19T01:14:09;14.00;;;11.63;;
27428;SDS011;14881;48.092;11.574;2022-08-19T01:16:37;13.20;;;11.73;;
27428;SDS011;14881;48.092;11.574;2022-08-19T01:19:09;13.40;;;11.73;;
27428;SDS011;14881;48.092;11.574;2022-08-19T01:21:44;14.23;;;12.00;;
27428;SDS011;14881;48.092;11.574;2022-08-19T01:24:19;14.32;;;12.63;;
27428;SDS011;14881;48.092;11.574;2022-08-19T01:26:47;15.15;;;12.13;;
27428;SDS011;14881;48.092;11.574;2022-08-19T01:29:18;13.48;;;11.90;;
27428;SDS011;14881;48.092;11.574;2022-08-19T01:31:46;13.82;;;11.82;;
27428;SDS011;14881;48.092;11.574;2022-08-19T01:34:18;13.25;;;11.45;;
27428;SDS011;14881;48.092;11.574;2022-08-19T01:36:47;15.00;;;11.93;;
27428;SDS011;14881;48.092;11.574;2022-08-19T01:39:17;11.95;;;10.38;;
27428;SDS011;14881;48.092;11.574;2022-08-19T01:41:47;12.60;;;11.10;;
27428;SDS011;14881;48.092;11.574;2022-08-19T01:44:15;12.20;;;10.63;;
27428;SDS011;14881;48.092;11.574;2022-08-19T01:46:47;13.02;;;11.63;;
27428;SDS011;14881;48.092;11.574;2022-08-19T01:49:17;12.07;;;10.77;;
27428;SDS011;14881;48.092;11.574;2022-08-19T01:51:47;14.52;;;10.70;;
27428;SDS011;14881;48.092;11.574;2022-08-19T01:54:17;11.77;;;10.00;;
27428;SDS011;14881;48.092;11.574;2022-08-19T01:56:53;11.27;;;10.05;;
27428;SDS011;14881;48.092;11.574;2022-08-19T01:59:25;12.90;;;10.73;;
27428;SDS011;14881;48.092;11.574;2022-08-19T02:01:53;13.23;;;10.65;;
27428;SDS011;14881;48.092;11.574;2022-08-19T02:04:21;10.90;;;9.77;;
27428;SDS011;14881;48.092;11.574;2022-08-19T02:06:49;11.25;;;10.07;;
27428;SDS011;14881;48.092;11.574;2022-08-19T02:09:18;12.32;;;10.93;;
27428;SDS011;14881;48.092;11.574;2022-08-19T02:11:46;11.98;;;10.68;;
27428;SDS011;14881;48.092;11.574;2022-08-19T02:14:14;12.10;;;10.80;;
27428;SDS011;14881;48.092;11.574;2022-08-19T02:16:42;11.13;;;9.25;;
27428;SDS011;14881;48.092;11.574;2022-08-19T02:19:09;11.52;;;10.32;;
27428;SDS011;14881;48.092;11.574;2022-08-19T02:21:37;10.60;;;9.50;;
27428;SDS011;14881;48.092;11.574;2022-08-19T02:24:05;12.73;;;10.23;;
27428;SDS011;14881;48.092;11.574;2022-08-19T02:26:34;9.82;;;8.80;;
27428;SDS011;14881;48.092;11.574;2022-08-19T02:29:03;9.63;;;8.63;;
27428;SDS011;14881;48.092;11.574;2022-08-19T02:31:31;9.30;;;8.35;;
27428;SDS011;14881;48.092;11.574;2022-08-19T02:33:59;9.00;;;8.10;;
27428;SDS011;14881;48.092;11.574;2022-08-19T02:36:27;9.23;;;8.23;;
27428;SDS011;14881;48.092;11.574;2022-08-19T02:38:56;8.65;;;7.75;;
27428;SDS011;14881;48.092;11.574;2022-08-19T02:41:23;9.13;;;8.18;;
27428;SDS011;14881;48.092;11.574;2022-08-19T02:43:54;9.40;;;8.40;;
27428;SDS011;14881;48.092;11.574;2022-08-19T02:46:44;9.45;;;8.45;;
27428;SDS011;14881;48.092;11.574;2022-08-19T02:49:13;11.45;;;8.88;;
27428;SDS011;14881;48.092;11.574;2022-08-19T02:51:43;9.88;;;8.75;;
27428;SDS011;14881;48.092;11.574;2022-08-19T02:54:13;9.23;;;8.27;;
27428;SDS011;14881;48.092;11.574;2022-08-19T02:56:41;11.73;;;9.00;;
27428;SDS011;14881;48.092;11.574;2022-08-19T02:59:11;12.52;;;9.30;;
27428;SDS011;14881;48.092;11.574;2022-08-19T03:01:40;10.30;;;9.30;;
27428;SDS011;14881;48.092;11.574;2022-08-19T03:04:10;10.40;;;8.57;;
27428;SDS011;14881;48.092;11.574;2022-08-19T03:06:39;11.90;;;10.70;;
27428;SDS011;14881;48.092;11.574;2022-08-19T03:09:09;10.30;;;9.20;;
27428;SDS011;14881;48.092;11.574;2022-08-19T03:11:38;11.07;;;9.18;;
27428;SDS011;14881;48.092;11.574;2022-08-19T03:14:06;9.63;;;8.65;;
27428;SDS011;14881;48.092;11.574;2022-08-19T03:16:41;9.57;;;8.10;;
27428;SDS011;14881;48.092;11.574;2022-08-19T03:19:10;10.98;;;9.55;;
27428;SDS011;14881;48.092;11.574;2022-08-19T03:21:39;10.32;;;8.90;;
27428;SDS011;14881;48.092;11.574;2022-08-19T03:24:07;9.98;;;8.98;;
27428;SDS011;14881;48.092;11.574;2022-08-19T03:26:38;9.70;;;8.80;;
27428;SDS011;14881;48.092;11.574;2022-08-19T03:29:07;10.60;;;8.82;;
27428;SDS011;14881;48.092;11.574;2022-08-19T03:31:39;10.13;;;8.30;;
27428;SDS011;14881;48.092;11.574;2022-08-19T03:34:19;10.38;;;9.05;;
27428;SDS011;14881;48.092;11.574;2022-08-19T03:36:49;10.65;;;9.63;;
27428;SDS011;14881;48.092;11.574;2022-08-19T03:39:17;11.55;;;9.77;;
27428;SDS011;14881;48.092;11.574;2022-08-19T03:41:45;10.40;;;9.40;;
27428;SDS011;14881;48.092;11.574;2022-08-19T03:44:36;14.15;;;10.27;;
27428;SDS011;14881;48.092;11.574;2022-08-19T03:47:06;10.88;;;9.77;;
27428;SDS011;14881;48.092;11.574;2022-08-19T03:49:34;10.57;;;9.50;;
27428;SDS011;14881;48.092;11.574;2022-08-19T03:52:03;10.10;;;9.10;;
27428;SDS011;14881;48.092;11.574;2022-08-19T03:54:34;10.38;;;9.30;;
27428;SDS011;14881;48.092;11.574;2022-08-19T03:57:02;10.43;;;9.35;;
27428;SDS011;14881;48.092;11.574;2022-08-19T03:59:31;9.75;;;8.85;;
27428;SDS011;14881;48.092;11.574;2022-08-19T04:02:02;12.02;;;8.98;;
27428;SDS011;14881;48.092;11.574;2022-08-19T04:04:36;11.80;;;9.48;;
27428;SDS011;14881;48.092;11.574;2022-08-19T04:07:05;10.88;;;8.77;;
27428;SDS011;14881;48.092;11.574;2022-08-19T04:09:34;10.13;;;8.35;;
27428;SDS011;14881;48.092;11.574;2022-08-19T04:12:03;9.90;;;8.32;;
27428;SDS011;14881;48.092;11.574;2022-08-19T04:14:33;9.95;;;8.85;;
27428;SDS011;14881;48.092;11.574;2022-08-19T04:17:02;9.80;;;8.82;;
27428;SDS011;14881;48.092;11.574;2022-08-19T04:19:31;10.85;;;9.30;;
27428;SDS011;14881;48.092;11.574;2022-08-19T04:22:00;9.55;;;8.38;;
27428;SDS011;14881;48.092;11.574;2022-08-19T04:24:29;9.48;;;8.48;;
27428;SDS011;14881;48.092;11.574;2022-08-19T04:26:58;8.80;;;7.90;;
27428;SDS011;14881;48.092;11.574;2022-08-19T04:29:27;11.45;;;8.52;;
27428;SDS011;14881;48.092;11.574;2022-08-19T04:31:55;10.23;;;8.52;;
27428;SDS011;14881;48.092;11.574;2022-08-19T04:34:25;10.63;;;8.88;;
27428;SDS011;14881;48.092;11.574;2022-08-19T04:36:56;8.70;;;7.85;;
27428;SDS011;14881;48.092;11.574;2022-08-19T04:39:27;9.10;;;8.20;;
27428;SDS011;14881;48.092;11.574;2022-08-19T04:42:11;12.13;;;9.15;;
27428;SDS011;14881;48.092;11.574;2022-08-19T04:44:57;10.55;;;8.43;;
27428;SDS011;14881;48.092;11.574;2022-08-19T04:47:26;9.93;;;7.32;;
27428;SDS011;14881;48.092;11.574;2022-08-19T04:50:14;10.52;;;9.43;;
27428;SDS011;14881;48.092;11.574;2022-08-19T04:52:42;11.77;;;8.85;;
27428;SDS011;14881;48.092;11.574;2022-08-19T04:55:11;9.63;;;8.35;;
27428;SDS011;14881;48.092;11.574;2022-08-19T04:57:39;8.93;;;7.47;;
27428;SDS011;14881;48.092;11.574;2022-08-19T05:00:08;9.02;;;8.13;;
27428;SDS011;14881;48.092;11.574;2022-08-19T05:02:37;9.10;;;7.65;;
27428;SDS011;14881;48.092;11.574;2022-08-19T05:05:05;9.85;;;7.82;;
27428;SDS011;14881;48.092;11.574;2022-08-19T05:07:34;9.55;;;8.05;;
27428;SDS011;14881;48.092;11.574;2022-08-19T05:10:02;7.90;;;7.05;;
27428;SDS011;14881;48.092;11.574;2022-08-19T05:12:32;8.57;;;7.65;;
27428;SDS011;14881;48.092;11.574;2022-08-19T05:15:04;7.97;;;7.18;;
27428;SDS011;14881;48.092;11.574;2022-08-19T05:17:34;7.88;;;7.07;;
27428;SDS011;14881;48.092;11.574;2022-08-19T05:20:04;7.15;;;6.47;;
27428;SDS011;14881;48.092;11.574;2022-08-19T05:22:51;8.20;;;7.20;;
27428;SDS011;14881;48.092;11.574;2022-08-19T05:25:19;8.45;;;7.65;;
27428;SDS011;14881;48.092;11.574;2022-08-19T05:27:50;7.95;;;7.15;;
27428;SDS011;14881;48.092;11.574;2022-08-19T05:30:17;9.60;;;7.30;;
27428;SDS011;14881;48.092;11.574;2022-08-19T05:33:05;8.73;;;7.82;;
27428;SDS011;14881;48.092;11.574;2022-08-19T05:35:36;8.75;;;7.53;;
27428;SDS011;14881;48.092;11.574;2022-08-19T05:38:04;9.00;;;7.93;;
27428;SDS011;14881;48.092;11.574;2022-08-19T05:40:33;9.20;;;7.90;;
27428;SDS011;14881;48.092;11.574;2022-08-19T05:43:04;9.25;;;8.20;;
27428;SDS011;14881;48.092;11.574;2022-08-19T05:45:37;9.95;;;8.38;;
27428;SDS011;14881;48.092;11.574;2022-08-19T05:48:06;11.30;;;9.80;;
27428;SDS011;14881;48.092;11.574;2022-08-19T05:50:35;12.43;;;10.25;;
27428;SDS011;14881;48.092;11.574;2022-08-19T05:53:03;15.70;;;10.02;;
27428;SDS011;14881;48.092;11.574;2022-08-19T05:55:31;16.00;;;10.70;;
27428;SDS011;14881;48.092;11.574;2022-08-19T05:57:59;14.05;;;10.73;;
27428;SDS011;14881;48.092;11.574;2022-08-19T06:00:29;12.70;;;10.18;;
27428;SDS011;14881;48.092;11.574;2022-08-19T06:02:57;12.27;;;10.98;;
27428;SDS011;14881;48.092;11.574;2022-08-19T06:05:38;14.70;;;11.50;;
27428;SDS011;14881;48.092;11.574;2022-08-19T06:08:17;13.82;;;10.73;;
27428;SDS011;14881;48.092;11.574;2022-08-19T06:10:45;13.60;;;10.73;;
27428;SDS011;14881;48.092;11.574;2022-08-19T06:13:13;12.48;;;10.95;;
27428;SDS011;14881;48.092;11.574;2022-08-19T06:15:42;13.50;;;11.27;;
27428;SDS011;14881;48.092;11.574;2022-08-19T06:18:12;12.68;;;11.38;;
27428;SDS011;14881;48.092;11.574;2022-08-19T06:20:41;12.75;;;11.45;;
27428;SDS011;14881;48.092;11.574;2022-08-19T06:23:22;15.07;;;11.95;;
27428;SDS011;14881;48.092;11.574;2022-08-19T06:25:50;15.32;;;12.18;;
27428;SDS011;14881;48.092;11.574;2022-08-19T06:28:18;14.60;;;12.48;;
27428;SDS011;14881;48.092;11.574;2022-08-19T06:30:48;14.88;;;12.38;;
27428;SDS011;14881;48.092;11.574;2022-08-19T06:33:17;17.98;;;12.60;;
27428;SDS011;14881;48.092;11.574;2022-08-19T06:35:45;15.65;;;13.18;;
27428;SDS011;14881;48.092;11.574;2022-08-19T06:38:13;16.88;;;12.50;;
27428;SDS011;14881;48.092;11.574;2022-08-19T06:40:40;16.23;;;12.75;;
27428;SDS011;14881;48.092;11.574;2022-08-19T06:43:09;15.02;;;13.43;;
27428;SDS011;14881;48.092;11.574;2022-08-19T06:45:39;17.52;;;13.75;;
27428;SDS011;14881;48.092;11.574;2022-08-19T06:48:08;21.45;;;15.93;;
27428;SDS011;14881;48.092;11.574;2022-08-19T06:50:36;19.77;;;16.00;;
27428;SDS011;14881;48.092;11.574;2022-08-19T06:53:06;19.20;;;15.50;;
27428;SDS011;14881;48.092;11.574;2022-08-19T06:55:34;20.50;;;17.15;;
27428;SDS011;14881;48.092;11.574;2022-08-19T06:58:01;20.13;;;16.58;;
27428;SDS011;14881;48.092;11.574;2022-08-19T07:00:30;23.73;;;18.00;;
27428;SDS011;14881;48.092;11.574;2022-08-19T07:02:58;21.40;;;17.10;;
27428;SDS011;14881;48.092;11.574;2022-08-19T07:05:38;22.80;;;18.20;;
27428;SDS011;14881;48.092;11.574;2022-08-19T07:08:11;21.92;;;17.52;;
27428;SDS011;14881;48.092;11.574;2022-08-19T07:10:42;23.50;;;19.50;;
27428;SDS011;14881;48.092;11.574;2022-08-19T07:13:11;21.83;;;18.67;;
27428;SDS011;14881;48.092;11.574;2022-08-19T07:15:39;22.98;;;19.13;;
27428;SDS011;14881;48.092;11.574;2022-08-19T07:18:08;26.50;;;19.63;;
27428;SDS011;14881;48.092;11.574;2022-08-19T07:20:38;26.25;;;19.55;;
27428;SDS011;14881;48.092;11.574;2022-08-19T07:23:07;26.63;;;21.20;;
27428;SDS011;14881;48.092;11.574;2022-08-19T07:25:41;23.23;;;19.15;;
27428;SDS011;14881;48.092;11.574;2022-08-19T07:28:09;25.55;;;19.27;;
27428;SDS011;14881;48.092;11.574;2022-08-19T07:30:49;24.20;;;20.10;;
27428;SDS011;14881;48.092;11.574;2022-08-19T07:33:18;27.55;;;21.77;;
27428;SDS011;14881;48.092;11.574;2022-08-19T07:35:47;26.88;;;21.20;;
27428;SDS011;14881;48.092;11.574;2022-08-19T07:38:16;28.40;;;21.95;;
27428;SDS011;14881;48.092;11.574;2022-08-19T07:40:44;25.77;;;21.27;;
27428;SDS011;14881;48.092;11.574;2022-08-19T07:43:12;29.73;;;21.95;;
27428;SDS011;14881;48.092;11.574;2022-08-19T07:45:43;27.58;;;21.08;;
27428;SDS011;14881;48.092;11.574;2022-08-19T07:48:11;24.13;;;19.73;;
27428;SDS011;14881;48.092;11.574;2022-08-19T07:50:39;25.02;;;20.02;;
27428;SDS011;14881;48.092;11.574;2022-08-19T07:53:08;24.73;;;19.90;;
27428;SDS011;14881;48.092;11.574;2022-08-19T07:55:36;22.25;;;19.20;;
27428;SDS011;14881;48.092;11.574;2022-08-19T07:58:08;25.33;;;19.83;;
27428;SDS011;14881;48.092;11.574;2022-08-19T08:00:36;26.90;;;21.35;;
27428;SDS011;14881;48.092;11.574;2022-08-19T08:03:04;26.60;;;20.02;;
27428;SDS011;14881;48.092;11.574;2022-08-19T08:05:32;26.38;;;20.42;;
27428;SDS011;14881;48.092;11.574;2022-08-19T08:08:19;28.00;;;21.63;;
27428;SDS011;14881;48.092;11.574;2022-08-19T08:11:13;28.88;;;20.88;;
27428;SDS011;14881;48.092;11.574;2022-08-19T08:13:45;28.45;;;21.25;;
27428;SDS011;14881;48.092;11.574;2022-08-19T08:16:30;32.17;;;21.40;;
27428;SDS011;14881;48.092;11.574;2022-08-19T08:19:05;30.08;;;21.90;;
27428;SDS011;14881;48.092;11.574;2022-08-19T08:21:50;26.40;;;21.05;;
27428;SDS011;14881;48.092;11.574;2022-08-19T08:24:20;25.20;;;21.08;;
27428;SDS011;14881;48.092;11.574;2022-08-19T08:26:54;27.50;;;23.07;;
27428;SDS011;14881;48.092;11.574;2022-08-19T08:29:23;31.67;;;23.48;;
27428;SDS011;14881;48.092;11.574;2022-08-19T08:31:59;31.35;;;22.65;;
27428;SDS011;14881;48.092;11.574;2022-08-19T08:34:27;31.98;;;21.98;;
27428;SDS011;14881;48.092;11.574;2022-08-19T08:36:55;29.92;;;22.35;;
27428;SDS011;14881;48.092;11.574;2022-08-19T08:39:24;31.63;;;22.95;;
27428;SDS011;14881;48.092;11.574;2022-08-19T08:41:53;30.15;;;22.65;;
27428;SDS011;14881;48.092;11.574;2022-08-19T08:44:43;34.72;;;24.70;;
27428;SDS011;14881;48.092;11.574;2022-08-19T08:47:24;33.20;;;25.48;;
27428;SDS011;14881;48.092;11.574;2022-08-19T08:49:59;39.20;;;27.65;;
27428;SDS011;14881;48.092;11.574;2022-08-19T08:52:30;41.80;;;28.90;;
27428;SDS011;14881;48.092;11.574;2022-08-19T08:55:06;40.75;;;27.95;;
27428;SDS011;14881;48.092;11.574;2022-08-19T08:57:39;39.50;;;26.77;;
27428;SDS011;14881;48.092;11.574;2022-08-19T09:00:17;42.67;;;28.52;;
27428;SDS011;14881;48.092;11.574;2022-08-19T09:02:47;42.05;;;27.05;;
27428;SDS011;14881;48.092;11.574;2022-08-19T09:05:16;39.40;;;27.52;;
27428;SDS011;14881;48.092;11.574;2022-08-19T09:07:53;40.03;;;27.80;;
27428;SDS011;14881;48.092;11.574;2022-08-19T09:10:32;43.75;;;28.95;;
27428;SDS011;14881;48.092;11.574;2022-08-19T09:13:18;46.10;;;29.42;;
27428;SDS011;14881;48.092;11.574;2022-08-19T09:15:56;46.47;;;30.95;;
27428;SDS011;14881;48.092;11.574;2022-08-19T09:18:35;41.63;;;29.90;;
27428;SDS011;14881;48.092;11.574;2022-08-19T09:21:06;42.08;;;28.98;;
27428;SDS011;14881;48.092;11.574;2022-08-19T09:23:35;41.22;;;27.80;;
27428;SDS011;14881;48.092;11.574;2022-08-19T09:26:07;35.95;;;26.73;;
27428;SDS011;14881;48.092;11.574;2022-08-19T09:28:36;41.47;;;29.27;;
27428;SDS011;14881;48.092;11.574;2022-08-19T09:31:09;38.30;;;26.48;;
27428;SDS011;14881;48.092;11.574;2022-08-19T09:33:37;41.92;;;27.77;;
27428;SDS011;14881;48.092;11.574;2022-08-19T09:36:06;43.95;;;29.42;;
27428;SDS011;14881;48.092;11.574;2022-08-19T09:38:36;44.22;;;29.45;;
27428;SDS011;14881;48.092;11.574;2022-08-19T09:41:11;40.17;;;28.05;;
27428;SDS011;14881;48.092;11.574;2022-08-19T09:43:40;38.67;;;27.70;;
27428;SDS011;14881;48.092;11.574;2022-08-19T09:46:13;37.05;;;26.88;;
27428;SDS011;14881;48.092;11.574;2022-08-19T09:48:43;36.92;;;26.88;;
27428;SDS011;14881;48.092;11.574;2022-08-19T09:51:15;34.15;;;24.70;;
27428;SDS011;14881;48.092;11.574;2022-08-19T09:53:47;36.30;;;26.50;;
27428;SDS011;14881;48.092;11.574;2022-08-19T09:56:19;38.65;;;26.30;;
27428;SDS011;14881;48.092;11.574;2022-08-19T09:58:49;32.47;;;25.05;;
27428;SDS011;14881;48.092;11.574;2022-08-19T10:01:18;35.17;;;26.10;;
27428;SDS011;14881;48.092;11.574;2022-08-19T10:03:48;35.15;;;25.00;;
27428;SDS011;14881;48.092;11.574;2022-08-19T10:06:17;30.25;;;23.08;;
27428;SDS011;14881;48.092;11.574;2022-08-19T10:09:06;34.13;;;25.95;;
27428;SDS011;14881;48.092;11.574;2022-08-19T10:11:38;38.22;;;26.55;;
27428;SDS011;14881;48.092;11.574;2022-08-19T10:14:17;35.35;;;25.35;;
27428;SDS011;14881;48.092;11.574;2022-08-19T10:16:48;34.05;;;24.98;;
27428;SDS011;14881;48.092;11.574;2022-08-19T10:19:18;32.80;;;25.23;;
27428;SDS011;14881;48.092;11.574;2022-08-19T10:21:51;33.00;;;24.80;;
27428;SDS011;14881;48.092;11.574;2022-08-19T10:24:21;31.40;;;22.77;;
27428;SDS011;14881;48.092;11.574;2022-08-19T10:26:51;29.33;;;20.35;;
27428;SDS011;14881;48.092;11.574;2022-08-19T10:29:24;29.77;;;22.38;;
27428;SDS011;14881;48.092;11.574;2022-08-19T10:31:58;27.73;;;21.70;;
27428;SDS011;14881;48.092;11.574;2022-08-19T10:34:28;28.38;;;22.02;;
27428;SDS011;14881;48.092;11.574;2022-08-19T10:36:57;25.35;;;19.67;;
27428;SDS011;14881;48.092;11.574;2022-08-19T10:39:27;26.38;;;21.63;;
27428;SDS011;14881;48.092;11.574;2022-08-19T10:42:03;30.60;;;22.60;;
27428;SDS011;14881;48.092;11.574;2022-08-19T10:44:32;22.63;;;18.20;;
27428;SDS011;14881;48.092;11.574;2022-08-19T10:47:01;21.30;;;17.95;;
27428;SDS011;14881;48.092;11.574;2022-08-19T10:49:43;24.50;;;19.60;;
27428;SDS011;14881;48.092;11.574;2022-08-19T10:52:28;22.55;;;18.73;;
27428;SDS011;14881;48.092;11.574;2022-08-19T10:55:05;19.35;;;15.85;;
27428;SDS011;14881;48.092;11.574;2022-08-19T10:57:56;17.25;;;13.88;;
27428;SDS011;14881;48.092;11.574;2022-08-19T11:00:28;15.20;;;12.68;;
27428;SDS011;14881;48.092;11.574;2022-08-19T11:02:57;13.48;;;11.90;;
27428;SDS011;14881;48.092;11.574;2022-08-19T11:05:24;13.90;;;11.63;;
27428;SDS011;14881;48.092;11.574;2022-08-19T11:07:52;12.55;;;11.25;;
27428;SDS011;14881;48.092;11.574;2022-08-19T11:10:20;13.25;;;11.40;;
27428;SDS011;14881;48.092;11.574;2022-08-19T11:12:49;12.68;;;11.15;;
27428;SDS011;14881;48.092;11.574;2022-08-19T11:15:21;12.38;;;11.07;;
27428;SDS011;14881;48.092;11.574;2022-08-19T11:17:50;11.70;;;10.45;;
27428;SDS011;14881;48.092;11.574;2022-08-19T11:20:20;13.25;;;10.77;;
27428;SDS011;14881;48.092;11.574;2022-08-19T11:22:50;10.35;;;9.32;;
27428;SDS011;14881;48.092;11.574;2022-08-19T11:25:19;11.40;;;10.18;;
27428;SDS011;14881;48.092;11.574;2022-08-19T11:27:46;10.80;;;9.70;;
27428;SDS011;14881;48.092;11.574;2022-08-19T11:30:17;10.63;;;9.52;;
27428;SDS011;14881;48.092;11.574;2022-08-19T11:32:46;10.32;;;8.82;;
27428;SDS011;14881;48.092;11.574;2022-08-19T11:35:15;11.90;;;9.07;;
27428;SDS011;14881;48.092;11.574;2022-08-19T11:37:45;9.65;;;8.38;;
27428;SDS011;14881;48.092;11.574;2022-08-19T11:40:13;9.38;;;8.43;;
27428;SDS011;14881;48.092;11.574;2022-08-19T11:42:41;13.38;;;11.98;;
27428;SDS011;14881;48.092;11.574;2022-08-19T11:45:25;17.52;;;13.15;;
27428;SDS011;14881;48.092;11.574;2022-08-19T11:47:55;14.15;;;12.30;;
27428;SDS011;14881;48.092;11.574;2022-08-19T11:50:23;13.85;;;12.02;;
27428;SDS011;14881;48.092;11.574;2022-08-19T11:52:53;12.57;;;10.98;;
27428;SDS011;14881;48.092;11.574;2022-08-19T11:55:21;14.00;;;10.88;;
27428;SDS011;14881;48.092;11.574;2022-08-19T11:57:50;9.90;;;8.65;;
27428;SDS011;14881;48.092;11.574;2022-08-19T12:00:18;10.45;;;9.38;;
27428;SDS011;14881;48.092;11.574;2022-08-19T12:02:46;9.73;;;8.73;;
27428;SDS011;14881;48.092;11.574;2022-08-19T12:05:15;9.68;;;8.68;;
27428;SDS011;14881;48.092;11.574;2022-08-19T12:07:43;8.45;;;7.07;;
27428;SDS011;14881;48.092;11.574;2022-08-19T12:10:12;7.93;;;7.05;;
27428;SDS011;14881;48.092;11.574;2022-08-19T12:12:44;8.98;;;7.78;;
27428;SDS011;14881;48.092;11.574;2022-08-19T12:15:23;6.43;;;5.82;;
27428;SDS011;14881;48.092;11.574;2022-08-19T12:17:52;8.35;;;6.28;;
27428;SDS011;14881;48.092;11.574;2022-08-19T12:20:24;6.10;;;5.50;;
27428;SDS011;14881;48.092;11.574;2022-08-19T12:22:52;4.72;;;3.97;;
27428;SDS011;14881;48.092;11.574;2022-08-19T12:25:21;3.58;;;2.70;;
27428;SDS011;14881;48.092;11.574;2022-08-19T12:27:49;3.40;;;2.65;;
27428;SDS011;14881;48.092;11.574;2022-08-19T12:30:23;2.60;;;2.40;;
27428;SDS011;14881;48.092;11.574;2022-08-19T12:32:51;2.85;;;2.65;;
27428;SDS011;14881;48.092;11.574;2022-08-19T12:35:19;3.00;;;2.70;;
27428;SDS011;14881;48.092;11.574;2022-08-19T12:37:48;3.60;;;2.65;;
27428;SDS011;14881;48.092;11.574;2022-08-19T12:40:23;2.38;;;2.17;;
27428;SDS011;14881;48.092;11.574;2022-08-19T12:42:51;2.20;;;2.10;;
27428;SDS011;14881;48.092;11.574;2022-08-19T12:45:19;2.17;;;2.05;;
27428;SDS011;14881;48.092;11.574;2022-08-19T12:47:47;3.28;;;2.22;;
27428;SDS011;14881;48.092;11.574;2022-08-19T12:50:20;2.20;;;2.00;;
27428;SDS011;14881;48.092;11.574;2022-08-19T12:52:49;2.03;;;1.83;;
27428;SDS011;14881;48.092;11.574;2022-08-19T12:55:17;2.30;;;2.10;;
27428;SDS011;14881;48.092;11.574;2022-08-19T12:57:45;1.95;;;1.85;;
27428;SDS011;14881;48.092;11.574;2022-08-19T13:00:15;2.63;;;1.70;;
27428;SDS011;14881;48.092;11.574;2022-08-19T13:02:47;1.73;;;1.63;;
27428;SDS011;14881;48.092;11.574;2022-08-19T13:05:17;2.10;;;1.90;;
27428;SDS011;14881;48.092;11.574;2022-08-19T13:07:50;3.55;;;2.20;;
27428;SDS011;14881;48.092;11.574;2022-08-19T13:10:22;2.38;;;2.15;;
27428;SDS011;14881;48.092;11.574;2022-08-19T13:12:54;2.15;;;2.05;;
27428;SDS011;14881;48.092;11.574;2022-08-19T13:15:23;2.92;;;1.80;;
27428;SDS011;14881;48.092;11.574;2022-08-19T13:17:52;2.20;;;2.00;;
27428;SDS011;14881;48.092;11.574;2022-08-19T13:20:22;2.67;;;2.25;;
27428;SDS011;14881;48.092;11.574;2022-08-19T13:22:51;2.10;;;1.90;;
27428;SDS011;14881;48.092;11.574;2022-08-19T13:25:19;2.63;;;2.13;;
27428;SDS011;14881;48.092;11.574;2022-08-19T13:27:48;1.80;;;1.70;;
27428;SDS011;14881;48.092;11.574;2022-08-19T13:30:18;2.42;;;2.22;;
27428;SDS011;14881;48.092;11.574;2022-08-19T13:33:04;3.08;;;1.85;;
27428;SDS011;14881;48.092;11.574;2022-08-19T13:35:42;2.50;;;2.30;;
27428;SDS011;14881;48.092;11.574;2022-08-19T13:38:13;2.40;;;2.20;;
27428;SDS011;14881;48.092;11.574;2022-08-19T13:40:43;2.20;;;2.00;;
27428;SDS011;14881;48.092;11.574;2022-08-19T13:43:12;2.33;;;2.13;;
27428;SDS011;14881;48.092;11.574;2022-08-19T13:45:49;2.30;;;2.10;;
27428;SDS011;14881;48.092;11.574;2022-08-19T13:48:18;2.63;;;2.17;;
27428;SDS011;14881;48.092;11.574;2022-08-19T13:50:46;2.72;;;2.33;;
27428;SDS011;14881;48.092;11.574;2022-08-19T13:53:16;4.97;;;2.40;;
27428;SDS011;14881;48.092;11.574;2022-08-19T13:55:44;2.50;;;2.30;;
27428;SDS011;14881;48.092;11.574;2022-08-19T13:58:13;2.50;;;2.30;;
27428;SDS011;14881;48.092;11.574;2022-08-19T14:00:41;2.55;;;2.35;;
27428;SDS011;14881;48.092;11.574;2022-08-19T14:03:11;2.53;;;2.33;;
27428;SDS011;14881;48.092;11.574;2022-08-19T14:05:39;3.55;;;2.58;;
27428;SDS011;14881;48.092;11.574;2022-08-19T14:08:07;2.97;;;2.78;;
27428;SDS011;14881;48.092;11.574;2022-08-19T14:10:36;3.00;;;2.80;;
27428;SDS011;14881;48.092;11.574;2022-08-19T14:13:04;3.03;;;2.83;;
27428;SDS011;14881;48.092;11.574;2022-08-19T14:15:32;3.00;;;2.80;;
27428;SDS011;14881;48.092;11.574;2022-08-19T14:18:00;3.08;;;2.78;;
27428;SDS011;14881;48.092;11.574;2022-08-19T14:20:28;5.13;;;3.10;;
27428;SDS011;14881;48.092;11.574;2022-08-19T14:22:56;3.53;;;3.22;;
27428;SDS011;14881;48.092;11.574;2022-08-19T14:25:26;3.85;;;3.55;;
27428;SDS011;14881;48.092;11.574;2022-08-19T14:27:58;3.63;;;3.35;;
27428;SDS011;14881;48.092;11.574;2022-08-19T14:30:27;3.70;;;3.40;;
27428;SDS011;14881;48.092;11.574;2022-08-19T14:32:56;3.92;;;3.63;;
27428;SDS011;14881;48.092;11.574;2022-08-19T14:35:26;3.35;;;3.05;;
27428;SDS011;14881;48.092;11.574;2022-08-19T14:37:55;4.13;;;3.33;;
27428;SDS011;14881;48.092;11.574;2022-08-19T14:40:25;3.55;;;3.25;;